createdAt,value
2023-04-01T00:00:50.998Z,1.13
2023-04-01T00:03:19.486Z,1.00
2023-04-01T00:05:49.468Z,1.13
2023-04-01T00:08:18.614Z,1.03
2023-04-01T00:10:46.757Z,1.10
2023-04-01T00:13:14.960Z,0.93
2023-04-01T00:15:42.926Z,0.97
2023-04-01T00:18:10.793Z,1.40
2023-04-01T00:20:38.643Z,1.03
2023-04-01T00:23:10.711Z,0.83
2023-04-01T00:25:38.714Z,0.83
2023-04-01T00:28:06.543Z,1.20
2023-04-01T00:30:36.751Z,1.27
2023-04-01T00:33:04.959Z,0.83
2023-04-01T00:35:33.502Z,0.90
2023-04-01T00:38:01.557Z,0.90
2023-04-01T00:40:32.548Z,0.83
2023-04-01T00:43:01.049Z,1.03
2023-04-01T00:45:35.923Z,1.03
2023-04-01T00:48:07.747Z,1.27
2023-04-01T00:50:37.537Z,0.93
2023-04-01T00:53:07.532Z,1.00
2023-04-01T00:55:41.383Z,1.00
2023-04-01T00:58:15.563Z,1.00
2023-04-01T01:00:44.684Z,1.13
2023-04-01T01:03:13.658Z,1.30
2023-04-01T01:06:04.010Z,0.73
2023-04-01T01:08:41.836Z,0.80
2023-04-01T01:11:14.193Z,1.27
2023-04-01T01:13:48.349Z,1.30
2023-04-01T01:16:21.454Z,1.23
2023-04-01T01:18:54.846Z,1.40
2023-04-01T01:21:51.844Z,1.47
2023-04-01T01:24:30.445Z,1.20
2023-04-01T01:27:12.721Z,1.00
2023-04-01T01:30:31.476Z,1.30
2023-04-01T01:33:17.705Z,1.00
2023-04-01T01:35:50.015Z,1.40
2023-04-01T01:38:20.298Z,1.23
2023-04-01T01:40:52.994Z,1.40
2023-04-01T01:43:24.622Z,1.07
2023-04-01T01:45:57.198Z,1.30
2023-04-01T01:48:26.682Z,1.30
2023-04-01T01:50:56.173Z,1.23
2023-04-01T01:53:24.420Z,1.20
2023-04-01T01:55:52.995Z,0.93
2023-04-01T01:58:24.439Z,1.20
2023-04-01T02:00:56.816Z,1.50
2023-04-01T02:03:27.443Z,1.13
2023-04-01T02:06:00.060Z,1.13
2023-04-01T02:08:32.800Z,1.33
2023-04-01T02:11:05.855Z,1.83
2023-04-01T02:13:39.970Z,1.07
2023-04-01T02:16:14.498Z,1.20
2023-04-01T02:18:45.394Z,1.23
2023-04-01T02:21:19.293Z,1.10
2023-04-01T02:23:48.774Z,1.37
2023-04-01T02:26:17.133Z,1.20
2023-04-01T02:28:48.587Z,1.37
2023-04-01T02:31:17.166Z,1.47
2023-04-01T02:33:46.768Z,1.33
2023-04-01T02:36:17.532Z,1.47
2023-04-01T02:38:49.596Z,1.23
2023-04-01T02:41:17.477Z,1.70
2023-04-01T02:43:45.337Z,1.40
2023-04-01T02:46:13.477Z,1.20
2023-04-01T02:48:41.305Z,1.40
2023-04-01T02:51:10.048Z,1.30
2023-04-01T02:53:39.212Z,1.10
2023-04-01T02:56:07.204Z,1.37
2023-04-01T02:58:35.042Z,1.33
2023-04-01T03:01:03.456Z,1.30
2023-04-01T03:03:31.382Z,1.37
2023-04-01T03:06:01.135Z,1.23
2023-04-01T03:08:28.991Z,1.10
2023-04-01T03:10:59.603Z,1.23
2023-04-01T03:13:28.531Z,1.17
2023-04-01T03:15:56.819Z,1.67
2023-04-01T03:18:24.678Z,1.13
2023-04-01T03:20:52.756Z,1.50
2023-04-01T03:23:22.106Z,1.50
2023-04-01T03:25:50.846Z,1.20
2023-04-01T03:28:20.263Z,1.27
2023-04-01T03:30:48.182Z,1.50
2023-04-01T03:33:16.039Z,1.83
2023-04-01T03:35:43.943Z,1.07
2023-04-01T03:38:12.061Z,1.37
2023-04-01T03:40:43.832Z,1.40
2023-04-01T03:43:11.798Z,1.53
2023-04-01T03:45:46.952Z,1.43
2023-04-01T03:48:15.562Z,1.17
2023-04-01T03:50:43.931Z,1.73
2023-04-01T03:53:12.210Z,1.33
2023-04-01T03:55:40.752Z,1.23
2023-04-01T03:58:09.789Z,1.53
2023-04-01T04:00:37.886Z,1.37
2023-04-01T04:03:08.925Z,1.57
2023-04-01T04:05:36.938Z,1.47
2023-04-01T04:08:05.117Z,1.47
2023-04-01T04:10:32.942Z,1.80
2023-04-01T04:13:00.976Z,1.37
2023-04-01T04:15:28.732Z,1.43
2023-04-01T04:17:56.525Z,2.03
2023-04-01T04:20:26.946Z,1.50
2023-04-01T04:22:54.761Z,1.80
2023-04-01T04:25:22.601Z,1.17
2023-04-01T04:27:50.485Z,1.30
2023-04-01T04:30:18.607Z,1.57
2023-04-01T04:32:46.616Z,1.80
2023-04-01T04:35:14.407Z,1.53
2023-04-01T04:37:43.631Z,1.53
2023-04-01T04:40:11.672Z,1.13
2023-04-01T04:42:39.518Z,1.33
2023-04-01T04:45:08.531Z,1.60
2023-04-01T04:47:36.412Z,1.40
2023-04-01T04:50:04.260Z,1.23
2023-04-01T04:52:32.096Z,1.30
2023-04-01T04:55:01.520Z,1.50
2023-04-01T04:57:29.691Z,1.73
2023-04-01T04:59:57.667Z,1.70
2023-04-01T05:02:25.612Z,1.30
2023-04-01T05:04:53.753Z,1.50
2023-04-01T05:07:21.582Z,1.43
2023-04-01T05:09:49.430Z,1.27
2023-04-01T05:12:18.557Z,1.20
2023-04-01T05:14:46.482Z,1.30
2023-04-01T05:17:15.566Z,1.30
2023-04-01T05:19:43.659Z,2.00
2023-04-01T05:22:11.430Z,1.50
2023-04-01T05:24:39.347Z,1.30
2023-04-01T05:27:07.380Z,1.20
2023-04-01T05:29:36.740Z,1.30
2023-04-01T05:32:04.844Z,1.43
2023-04-01T05:34:32.946Z,1.33
2023-04-01T05:37:01.094Z,1.17
2023-04-01T05:39:29.492Z,1.37
2023-04-01T05:41:57.465Z,1.23
2023-04-01T05:44:25.668Z,1.27
2023-04-01T05:46:54.840Z,1.30
2023-04-01T05:49:22.776Z,1.43
2023-04-01T05:51:50.544Z,1.53
2023-04-01T05:54:18.447Z,1.30
2023-04-01T05:56:47.661Z,1.20
2023-04-01T05:59:16.596Z,1.53
2023-04-01T06:01:45.053Z,0.90
2023-04-01T06:04:17.478Z,0.90
2023-04-01T06:06:46.378Z,0.93
2023-04-01T06:09:17.542Z,1.33
2023-04-01T06:11:59.688Z,1.27
2023-04-01T06:14:36.578Z,1.17
2023-04-01T06:17:19.739Z,0.90
2023-04-01T06:19:57.856Z,1.50
2023-04-01T06:22:44.281Z,1.10
2023-04-01T06:25:47.865Z,1.23
2023-04-01T06:29:02.398Z,0.70
2023-04-01T06:31:47.757Z,0.37
2023-04-01T06:34:39.174Z,0.20
2023-04-01T06:37:22.865Z,0.20
2023-04-01T06:40:08.471Z,0.13
2023-04-01T06:42:56.361Z,0.30
2023-04-01T06:45:34.112Z,0.17
2023-04-01T06:48:26.752Z,0.13
2023-04-01T06:51:01.294Z,0.20
2023-04-01T06:53:36.896Z,0.33
2023-04-01T06:56:08.821Z,0.30
2023-04-01T06:58:40.733Z,0.17
2023-04-01T07:01:12.770Z,0.27
2023-04-01T07:03:45.553Z,0.13
2023-04-01T07:06:26.212Z,0.37
2023-04-01T07:08:57.800Z,0.10
2023-04-01T07:11:28.908Z,0.20
2023-04-01T07:14:01.320Z,0.27
2023-04-01T07:16:32.481Z,0.20
2023-04-01T07:19:04.121Z,0.10
2023-04-01T07:21:37.074Z,0.10
2023-04-01T07:24:13.470Z,0.10
2023-04-01T07:26:41.335Z,0.33
2023-04-01T07:29:13.367Z,0.40
2023-04-01T07:32:01.958Z,0.30
2023-04-01T07:34:34.462Z,0.23
2023-04-01T07:37:08.814Z,0.20
2023-04-01T07:39:47.802Z,0.20
2023-04-01T07:42:26.003Z,0.10
2023-04-01T07:45:01.225Z,0.40
2023-04-01T07:47:43.447Z,0.17
2023-04-01T07:50:20.290Z,0.20
2023-04-01T07:52:54.073Z,0.20
2023-04-01T07:55:27.419Z,0.17
2023-04-01T07:58:01.023Z,0.20
2023-04-01T08:00:36.448Z,0.30
2023-04-01T08:03:20.840Z,0.23
2023-04-01T08:05:57.318Z,0.20
2023-04-01T08:08:37.186Z,0.20
2023-04-01T08:11:14.878Z,0.40
2023-04-01T08:13:48.170Z,0.60
2023-04-01T08:16:22.728Z,0.50
2023-04-01T08:18:59.669Z,0.20
2023-04-01T08:21:30.703Z,0.10
2023-04-01T08:24:02.573Z,0.10
2023-04-01T08:26:41.220Z,0.20
2023-04-01T08:29:14.108Z,0.20
2023-04-01T08:31:50.851Z,0.13
2023-04-01T08:34:23.280Z,0.17
2023-04-01T08:36:56.359Z,0.00
2023-04-01T08:39:31.253Z,0.33
2023-04-01T08:42:20.791Z,0.20
2023-04-01T08:45:09.300Z,0.20
2023-04-01T08:47:48.692Z,0.17
2023-04-01T08:50:43.223Z,0.20
2023-04-01T08:53:23.090Z,0.30
2023-04-01T08:56:05.573Z,0.20
2023-04-01T08:59:00.981Z,0.20
2023-04-01T09:01:44.798Z,0.40
2023-04-01T09:04:27.881Z,0.10
2023-04-01T09:07:12.942Z,0.37
2023-04-01T09:10:16.571Z,0.20
2023-04-01T09:13:08.154Z,0.30
2023-04-01T09:15:56.310Z,0.20
2023-04-01T09:18:47.455Z,0.10
2023-04-01T09:21:48.610Z,0.60
2023-04-01T09:24:33.531Z,0.10
2023-04-01T09:27:12.606Z,0.30
2023-04-01T09:30:10.803Z,0.30
2023-04-01T09:33:08.890Z,0.17
2023-04-01T09:35:45.602Z,0.13
2023-04-01T09:38:23.775Z,0.27
2023-04-01T09:40:58.313Z,0.30
2023-04-01T09:43:31.904Z,0.40
2023-04-01T09:46:18.672Z,0.20
2023-04-01T09:49:11.556Z,0.23
2023-04-01T09:51:47.207Z,0.40
2023-04-01T09:54:26.624Z,0.67
2023-04-01T09:57:26.562Z,0.50
2023-04-01T10:00:24.074Z,0.20
2023-04-01T10:03:27.692Z,0.10
2023-04-01T10:06:47.429Z,0.23
2023-04-01T10:10:01.839Z,0.30
2023-04-01T10:12:57.345Z,0.77
2023-04-01T10:15:51.308Z,0.40
2023-04-01T10:19:04.007Z,0.20
2023-04-01T10:22:06.943Z,0.13
2023-04-01T10:25:22.101Z,0.10
2023-04-01T10:28:07.131Z,0.17
2023-04-01T10:31:02.796Z,0.20
2023-04-01T10:33:56.281Z,0.23
2023-04-01T10:36:45.099Z,0.20
2023-04-01T10:39:45.605Z,0.10
2023-04-01T10:42:51.216Z,0.27
2023-04-01T10:45:58.774Z,0.40
2023-04-01T10:48:55.656Z,0.20
2023-04-01T10:51:53.772Z,0.27
2023-04-01T10:54:38.386Z,0.10
2023-04-01T10:57:29.310Z,0.40
2023-04-01T11:00:20.783Z,0.20
2023-04-01T11:03:27.756Z,0.10
2023-04-01T11:06:34.849Z,0.20
2023-04-01T11:09:40.868Z,0.20
2023-04-01T11:13:06.912Z,0.10
2023-04-01T11:16:20.503Z,0.50
2023-04-01T11:19:11.346Z,0.30
2023-04-01T11:22:30.611Z,0.10
2023-04-01T11:25:22.741Z,0.20
2023-04-01T11:28:21.180Z,0.27
2023-04-01T11:31:06.241Z,0.10
2023-04-01T11:33:39.502Z,0.10
2023-04-01T11:36:26.993Z,0.20
2023-04-01T11:39:05.325Z,0.27
2023-04-01T11:41:42.829Z,0.20
2023-04-01T11:44:19.832Z,0.20
2023-04-01T11:47:21.211Z,0.30
2023-04-01T11:49:57.779Z,0.10
2023-04-01T11:52:45.408Z,0.00
2023-04-01T11:55:30.601Z,0.27
2023-04-01T11:58:21.276Z,0.30
2023-04-01T12:01:08.687Z,0.23
2023-04-01T12:03:52.374Z,0.30
2023-04-01T12:06:32.146Z,0.30
2023-04-01T12:09:06.838Z,0.30
2023-04-01T12:11:41.837Z,0.40
2023-04-01T12:14:17.840Z,0.10
2023-04-01T12:16:54.939Z,0.17
2023-04-01T12:19:35.989Z,0.17
2023-04-01T12:22:30.846Z,0.30
2023-04-01T12:25:14.920Z,0.63
2023-04-01T12:27:52.477Z,0.60
2023-04-01T12:30:39.010Z,0.53
2023-04-01T12:33:43.824Z,0.47
2023-04-01T12:36:27.864Z,0.40
2023-04-01T12:39:25.176Z,0.30
2023-04-01T12:42:01.180Z,0.50
2023-04-01T12:44:51.905Z,0.30
2023-04-01T12:47:41.016Z,0.50
2023-04-01T12:50:23.602Z,0.83
2023-04-01T12:53:09.103Z,0.70
2023-04-01T12:55:45.412Z,0.60
2023-04-01T12:58:37.063Z,0.40
2023-04-01T13:01:40.618Z,0.50
2023-04-01T13:04:34.087Z,0.57
2023-04-01T13:07:22.046Z,0.67
2023-04-01T13:09:58.484Z,0.30
2023-04-01T13:13:05.113Z,0.27
2023-04-01T13:15:39.210Z,0.40
2023-04-01T13:18:20.363Z,0.50
2023-04-01T13:20:54.575Z,0.60
2023-04-01T13:23:34.971Z,0.63
2023-04-01T13:26:14.743Z,0.50
2023-04-01T13:28:48.639Z,0.60
2023-04-01T13:31:43.166Z,0.50
2023-04-01T13:34:25.329Z,0.50
2023-04-01T13:37:05.206Z,0.30
2023-04-01T13:39:49.562Z,0.20
2023-04-01T13:42:26.040Z,0.90
2023-04-01T13:44:58.778Z,0.20
2023-04-01T13:47:42.767Z,0.10
2023-04-01T13:50:36.406Z,0.23
2023-04-01T13:53:28.750Z,0.40
2023-04-01T13:56:04.307Z,0.40
2023-04-01T13:58:56.731Z,0.73
2023-04-01T14:01:33.494Z,0.47
2023-04-01T14:04:30.467Z,0.10
2023-04-01T14:07:10.162Z,0.43
2023-04-01T14:09:57.253Z,0.37
2023-04-01T14:12:32.515Z,0.20
2023-04-01T14:15:23.030Z,0.30
2023-04-01T14:18:02.776Z,0.10
2023-04-01T14:20:41.680Z,0.60
2023-04-01T14:23:33.171Z,0.40
2023-04-01T14:26:13.641Z,0.60
2023-04-01T14:28:48.492Z,0.50
2023-04-01T14:31:47.004Z,0.30
2023-04-01T14:34:28.910Z,0.97
2023-04-01T14:37:14.122Z,0.60
2023-04-01T14:40:19.933Z,0.80
2023-04-01T14:43:01.327Z,0.70
2023-04-01T14:45:52.733Z,0.83
2023-04-01T14:48:31.017Z,0.47
2023-04-01T14:51:06.661Z,0.97
2023-04-01T14:53:39.840Z,1.07
2023-04-01T14:56:07.924Z,1.10
2023-04-01T14:58:45.666Z,0.37
2023-04-01T15:01:27.866Z,0.73
2023-04-01T15:04:06.130Z,0.77
2023-04-01T15:06:47.758Z,1.07
2023-04-01T15:09:25.864Z,0.90
2023-04-01T15:12:05.811Z,0.93
2023-04-01T15:15:05.295Z,0.83
2023-04-01T15:17:53.755Z,0.70
2023-04-01T15:20:44.826Z,1.00
2023-04-01T15:23:23.944Z,0.10
2023-04-01T15:26:23.850Z,0.73
2023-04-01T15:29:17.435Z,0.80
2023-04-01T15:31:51.437Z,1.00
2023-04-01T15:34:27.469Z,0.60
2023-04-01T15:37:02.020Z,0.70
2023-04-01T15:39:45.977Z,0.83
2023-04-01T15:42:26.142Z,0.80
2023-04-01T15:45:05.829Z,0.90
2023-04-01T15:47:41.758Z,0.93
2023-04-01T15:50:36.593Z,0.80
2023-04-01T15:53:19.854Z,0.70
2023-04-01T15:55:53.420Z,1.00
2023-04-01T15:58:43.293Z,0.80
2023-04-01T16:01:24.478Z,0.57
2023-04-01T16:03:59.194Z,0.80
2023-04-01T16:06:43.822Z,0.70
2023-04-01T16:09:30.263Z,0.67
2023-04-01T16:12:05.554Z,0.40
2023-04-01T16:14:43.949Z,0.77
2023-04-01T16:17:33.850Z,0.97
2023-04-01T16:20:10.047Z,0.90
2023-04-01T16:22:41.940Z,0.90
2023-04-01T16:25:22.394Z,0.53
2023-04-01T16:27:58.669Z,0.90
2023-04-01T16:30:37.847Z,0.70
2023-04-01T16:33:13.573Z,1.30
2023-04-01T16:35:47.934Z,0.50
2023-04-01T16:38:24.679Z,0.53
2023-04-01T16:41:07.588Z,0.70
2023-04-01T16:43:44.780Z,0.80
2023-04-01T16:46:40.442Z,1.13
2023-04-01T16:49:34.105Z,0.90
2023-04-01T16:52:16.429Z,0.40
2023-04-01T16:54:52.803Z,1.20
2023-04-01T16:57:25.088Z,0.87
2023-04-01T17:00:02.022Z,0.63
2023-04-01T17:02:36.026Z,0.90
2023-04-01T17:05:10.062Z,1.07
2023-04-01T17:07:48.865Z,0.80
2023-04-01T17:10:30.406Z,0.90
2023-04-01T17:13:18.044Z,1.00
2023-04-01T17:15:56.374Z,0.53
2023-04-01T17:18:34.737Z,1.00
2023-04-01T17:21:09.779Z,1.20
2023-04-01T17:23:46.191Z,1.47
2023-04-01T17:26:34.882Z,0.80
2023-04-01T17:29:15.888Z,1.00
2023-04-01T17:31:51.693Z,1.53
2023-04-01T17:34:39.676Z,0.33
2023-04-01T17:37:23.843Z,0.73
2023-04-01T17:40:03.054Z,0.57
2023-04-01T17:42:41.255Z,0.30
2023-04-01T17:45:18.737Z,0.70
2023-04-01T17:47:57.007Z,0.70
2023-04-01T17:50:36.246Z,0.93
2023-04-01T17:53:16.337Z,0.80
2023-04-01T17:55:52.443Z,0.70
2023-04-01T17:58:22.405Z,0.30
2023-04-01T18:01:13.484Z,1.00
2023-04-01T18:04:05.911Z,0.90
2023-04-01T18:06:43.126Z,0.80
2023-04-01T18:09:21.237Z,0.80
2023-04-01T18:12:01.425Z,0.73
2023-04-01T18:14:52.074Z,0.47
2023-04-01T18:17:26.025Z,0.60
2023-04-01T18:20:04.995Z,0.97
2023-04-01T18:22:43.007Z,1.07
2023-04-01T18:25:20.341Z,1.00
2023-04-01T18:27:52.408Z,0.50
2023-04-01T18:30:24.127Z,0.67
2023-04-01T18:32:56.581Z,0.90
2023-04-01T18:35:31.840Z,0.70
2023-04-01T18:38:08.457Z,0.80
2023-04-01T18:40:40.192Z,0.27
2023-04-01T18:43:16.826Z,0.90
2023-04-01T18:45:52.015Z,0.60
2023-04-01T18:56:25.098Z,0.80
2023-04-01T18:59:00.172Z,1.00
2023-04-01T19:01:39.054Z,1.00
2023-04-01T19:04:18.860Z,0.60
2023-04-01T19:06:50.391Z,0.60
2023-04-01T19:09:21.756Z,1.13
2023-04-01T19:12:21.788Z,1.10
2023-04-01T19:15:01.691Z,0.70
2023-04-01T19:17:44.271Z,0.30
2023-04-01T19:20:20.038Z,0.40
2023-04-01T19:23:09.622Z,0.83
2023-04-01T19:25:42.749Z,0.77
2023-04-01T19:28:34.971Z,0.43
2023-04-01T19:31:13.526Z,0.90
2023-04-01T19:33:54.665Z,0.60
2023-04-01T19:36:31.764Z,0.50
2023-04-01T19:39:14.114Z,0.67
2023-04-01T19:41:49.430Z,1.30
2023-04-01T19:44:32.492Z,1.13
2023-04-01T19:47:07.616Z,1.17
2023-04-01T19:49:50.248Z,0.73
2023-04-01T19:52:25.230Z,1.13
2023-04-01T19:55:00.796Z,0.73
2023-04-01T19:57:39.337Z,0.37
2023-04-01T20:00:18.132Z,0.73
2023-04-01T20:03:03.539Z,1.13
2023-04-01T20:05:52.885Z,0.70
2023-04-01T20:08:30.955Z,0.90
2023-04-01T20:11:10.038Z,0.77
2023-04-01T20:13:48.358Z,1.10
2023-04-01T20:16:18.305Z,0.93
2023-04-01T20:18:53.704Z,0.57
2023-04-01T20:21:36.813Z,1.00
2023-04-01T20:24:16.857Z,0.80
2023-04-01T20:26:50.805Z,0.63
2023-04-01T20:29:37.462Z,0.83
2023-04-01T20:32:21.138Z,0.60
2023-04-01T20:35:14.858Z,0.50
2023-04-01T20:37:50.992Z,0.30
2023-04-01T20:40:37.223Z,0.50
2023-04-01T20:43:26.792Z,0.63
2023-04-01T20:46:00.407Z,0.70
2023-04-01T20:49:00.255Z,0.60
2023-04-01T20:51:31.810Z,0.53
2023-04-01T20:54:12.683Z,0.30
2023-04-01T20:56:50.158Z,1.00
2023-04-01T20:59:38.603Z,0.13
2023-04-01T21:02:18.707Z,0.13
2023-04-01T21:05:13.473Z,0.33
2023-04-01T21:07:44.034Z,0.50
2023-04-01T21:10:30.067Z,0.60
2023-04-01T21:13:06.355Z,0.70
2023-04-01T21:15:45.922Z,0.30
2023-04-01T21:18:29.654Z,0.57
2023-04-01T21:21:14.908Z,0.40
2023-04-01T21:23:56.255Z,0.60
2023-04-01T21:26:37.556Z,0.70
2023-04-01T21:29:28.396Z,0.40
2023-04-01T21:32:06.898Z,0.40
2023-04-01T21:34:46.103Z,0.30
2023-04-01T21:37:42.369Z,0.70
2023-04-01T21:40:43.571Z,0.40
2023-04-01T21:43:46.480Z,0.43
2023-04-01T21:46:40.998Z,1.10
2023-04-01T21:49:33.488Z,0.23
2023-04-01T21:52:31.672Z,0.50
2023-04-01T21:55:36.983Z,0.60
2023-04-01T21:58:28.979Z,0.70
2023-04-01T22:01:06.291Z,0.60
2023-04-01T22:04:05.326Z,1.00
2023-04-01T22:06:39.752Z,0.53
2023-04-01T22:09:20.017Z,0.47
2023-04-01T22:12:02.406Z,0.40
2023-04-01T22:14:36.498Z,0.40
2023-04-01T22:17:14.513Z,0.30
2023-04-01T22:19:51.909Z,0.73
2023-04-01T22:22:23.722Z,0.50
2023-04-01T22:25:02.055Z,0.93
2023-04-01T22:27:35.491Z,0.80
2023-04-01T22:30:16.290Z,0.27
2023-04-01T22:32:47.104Z,0.43
2023-04-01T22:35:29.660Z,0.50
2023-04-01T22:38:04.910Z,0.20
2023-04-01T22:40:41.684Z,0.30
2023-04-01T22:43:13.566Z,0.50
2023-04-01T22:46:09.530Z,0.50
2023-04-01T22:48:42.033Z,0.33
2023-04-01T22:51:16.038Z,0.30
2023-04-01T22:53:59.408Z,0.67
2023-04-01T22:56:32.488Z,0.77
2023-04-01T22:59:08.255Z,0.37
2023-04-01T23:01:41.581Z,0.53
2023-04-01T23:04:14.513Z,0.10
2023-04-01T23:06:46.266Z,0.23
2023-04-01T23:09:20.870Z,0.47
2023-04-01T23:11:53.740Z,0.83
2023-04-01T23:14:51.680Z,0.30
2023-04-01T23:17:33.937Z,0.83
2023-04-01T23:20:13.398Z,0.17
2023-04-01T23:22:52.233Z,0.40
2023-04-01T23:25:30.495Z,0.33
2023-04-01T23:28:17.726Z,0.33
2023-04-01T23:30:52.321Z,0.50
2023-04-01T23:33:28.403Z,0.60
2023-04-01T23:36:05.891Z,0.47
2023-04-01T23:38:36.697Z,0.40
2023-04-01T23:41:06.231Z,0.50
2023-04-01T23:43:39.013Z,0.30
2023-04-01T23:46:09.357Z,0.40
2023-04-01T23:48:39.981Z,0.10
2023-04-01T23:51:16.600Z,0.27
2023-04-01T23:53:47.393Z,0.40
2023-04-01T23:56:17.901Z,1.07
2023-04-01T23:58:53.313Z,0.47
